Chauncey, Ohio
Current Conditions -  °F | °C
As of 3:35 PM on Tuesday 21 Oct 2014 (Local Time) from KUNI Reporting Station
Overcast Overcast  
Wind Chill: 51°   Ceiling: 2200
Heat Index: 51°   Visibility: 10mi
Dew Point: 46°   Wind: 10mph
Humidity: 82%   Direction: 300°WNW
Pressure: 29.98"   Gusts: NA
Location:  39.4°N, 82.13°W
Report Text: KUNI 211935Z AUTO 30009KT 270V330 10SM SCT014 BKN022 OVC065 11/08 A2998 RMK AO2 T01080079
Loading
Personal Weather Stations






























Interactive Weather Map
Tropical Storm Tracking
New forecast layout! Learn more

10-Day Weather Forecast

Advertisements
Track Severe Weather on mobile